createdAt,value
2023-12-21T11:31:42.147Z,97990.91
2023-12-21T11:32:50.740Z,97988.28
2023-12-21T11:33:58.059Z,97987.19
2023-12-21T11:35:04.948Z,97991.47
2023-12-21T11:36:12.426Z,97986.50
2023-12-21T11:37:27.685Z,97984.28
2023-12-21T11:38:52.969Z,97964.81
2023-12-21T11:40:05.990Z,97973.88
2023-12-21T11:41:16.737Z,97960.97
2023-12-21T11:42:22.343Z,97951.94
2023-12-21T11:43:35.519Z,97960.72
2023-12-21T11:44:40.850Z,97957.16
2023-12-21T11:45:53.574Z,97954.44
2023-12-21T11:47:02.672Z,97949.22
2023-12-21T11:48:18.340Z,97936.31
2023-12-21T11:49:25.362Z,97943.63
2023-12-21T11:50:35.547Z,97934.16
2023-12-21T11:51:50.549Z,97935.81
2023-12-21T11:53:14.126Z,97921.00
2023-12-21T11:54:23.906Z,97916.59
2023-12-21T11:55:31.609Z,97920.84
2023-12-21T11:56:38.787Z,97906.63
2023-12-21T11:57:45.703Z,97910.03
2023-12-21T11:58:50.685Z,97901.66
2023-12-21T12:00:17.637Z,97886.59
2023-12-21T12:01:27.815Z,97895.22
2023-12-21T12:02:37.779Z,97900.97
2023-12-21T12:03:46.663Z,97886.03
2023-12-21T12:04:55.762Z,97884.94
2023-12-21T12:06:05.315Z,97879.59
2023-12-21T12:07:13.215Z,97878.78
2023-12-21T12:08:24.318Z,97870.28
2023-12-21T12:09:33.449Z,97861.91
2023-12-21T12:10:38.160Z,97875.63
2023-12-21T12:11:46.768Z,97871.34
2023-12-21T12:12:53.749Z,97858.63
2023-12-21T12:13:59.930Z,97854.09
2023-12-21T12:15:07.796Z,97847.38
2023-12-21T12:16:18.385Z,97850.94
2023-12-21T12:17:28.576Z,97853.41
2023-12-21T12:18:38.784Z,97842.03
2023-12-21T12:19:46.018Z,97846.28
2023-12-21T12:20:53.070Z,97832.28
2023-12-21T12:21:59.932Z,97825.56
2023-12-21T12:23:04.671Z,97824.78
2023-12-21T12:24:12.157Z,97822.28
2023-12-21T12:25:17.768Z,97815.31
2023-12-21T12:26:29.044Z,97818.47
2023-12-21T12:27:32.683Z,97806.78
2023-12-21T12:28:40.355Z,97807.63
2023-12-21T12:29:44.845Z,97802.13
2023-12-21T12:30:51.620Z,97796.50
2023-12-21T12:31:56.771Z,97802.81
2023-12-21T12:33:05.354Z,97812.69
2023-12-21T12:34:14.552Z,97795.41
2023-12-21T12:35:20.776Z,97778.69
2023-12-21T12:36:25.685Z,97787.19
2023-12-21T12:37:34.987Z,97779.81
2023-12-21T12:38:44.295Z,97774.44
2023-12-21T12:39:55.174Z,97762.94
2023-12-21T12:41:01.260Z,97775.53
2023-12-21T12:42:10.450Z,97766.78
2023-12-21T12:43:14.758Z,97767.47
2023-12-21T12:44:25.834Z,97755.81
2023-12-21T12:45:33.685Z,97749.66
2023-12-21T12:46:40.774Z,97746.91
2023-12-21T12:47:45.513Z,97746.91
2023-12-21T12:48:52.990Z,97741.97
2023-12-21T12:49:59.989Z,97749.66
2023-12-21T12:51:13.295Z,97737.16
2023-12-21T12:52:18.072Z,97737.72
2023-12-21T12:53:25.571Z,97728.13
2023-12-21T12:54:31.448Z,97722.78
2023-12-21T12:55:38.458Z,97710.84
2023-12-21T12:56:48.898Z,97716.75
2023-12-21T12:57:56.942Z,97714.81
2023-12-21T12:59:03.641Z,97705.06
2023-12-21T13:00:14.203Z,97691.94
2023-12-21T13:01:18.506Z,97700.41
2023-12-21T13:02:25.646Z,97696.19
2023-12-21T13:03:35.434Z,97710.03
2023-12-21T13:04:42.324Z,97683.72
2023-12-21T13:05:53.657Z,97685.91
2023-12-21T13:07:05.399Z,97671.09
2023-12-21T13:08:09.963Z,97679.88
2023-12-21T13:09:16.834Z,97676.88
2023-12-21T13:10:21.119Z,97669.59
2023-12-21T13:11:31.067Z,97658.19
2023-12-21T13:12:35.493Z,97670.94
2023-12-21T13:13:42.311Z,97651.06
2023-12-21T13:14:46.597Z,97653.66
2023-12-21T13:15:53.566Z,97640.50
2023-12-21T13:17:00.344Z,97635.16
2023-12-21T13:18:05.500Z,97640.06
2023-12-21T13:19:12.268Z,97632.41
2023-12-21T13:20:22.108Z,97621.84
2023-12-21T13:21:31.619Z,97626.94
2023-12-21T13:22:39.748Z,97618.28
2023-12-21T13:23:46.747Z,97621.03
2023-12-21T13:24:50.522Z,97617.06
2023-12-21T13:25:57.370Z,97617.59
2023-12-21T13:27:00.657Z,97609.78
2023-12-21T13:28:17.531Z,97614.88
2023-12-21T13:29:23.838Z,97607.72
2023-12-21T13:30:31.431Z,97598.28
2023-12-21T13:31:36.100Z,97601.44
2023-12-21T13:32:43.734Z,97594.25
2023-12-21T13:33:48.893Z,97594.16
2023-12-21T13:34:56.345Z,97583.41
2023-12-21T13:36:01.286Z,97577.41
2023-12-21T13:37:10.961Z,97590.44
2023-12-21T13:38:16.343Z,97579.16
2023-12-21T13:39:23.225Z,97562.88
2023-12-21T13:40:29.437Z,97574.91
2023-12-21T13:41:36.419Z,97586.03
2023-12-21T13:42:40.750Z,97574.69
2023-12-21T13:43:53.641Z,97585.63
2023-12-21T13:44:58.386Z,97572.63
2023-12-21T13:46:05.450Z,97566.72
2023-12-21T13:47:09.716Z,97560.41
2023-12-21T13:48:19.370Z,97549.69
2023-12-21T13:49:23.915Z,97547.69
2023-12-21T13:50:30.738Z,97549.97
2023-12-21T13:51:34.902Z,97545.31
2023-12-21T13:52:45.283Z,97537.38
2023-12-21T13:53:49.918Z,97537.47
2023-12-21T13:54:56.714Z,97531.88
2023-12-21T13:56:04.869Z,97545.06
2023-12-21T13:57:15.341Z,97523.91
2023-12-21T13:58:20.372Z,97529.97
2023-12-21T13:59:27.797Z,97520.19
2023-12-21T14:00:35.483Z,97527.22
2023-12-21T14:01:42.369Z,97508.97
2023-12-21T14:02:49.567Z,97497.28
2023-12-21T14:04:01.125Z,97488.66
2023-12-21T14:05:06.848Z,97505.25
2023-12-21T14:06:13.858Z,97502.97
2023-12-21T14:07:18.592Z,97500.19
2023-12-21T14:08:30.133Z,97498.41
2023-12-21T14:09:36.061Z,97494.03
2023-12-21T14:10:45.196Z,97497.28
2023-12-21T14:11:51.558Z,97487.56
2023-12-21T14:13:03.112Z,97480.69
2023-12-21T14:14:07.979Z,97494.69
2023-12-21T14:15:15.474Z,97481.81
2023-12-21T14:16:22.547Z,97485.91
2023-12-21T14:17:29.618Z,97479.03
2023-12-21T14:18:36.789Z,97497.28
2023-12-21T14:19:47.438Z,97486.59
2023-12-21T14:20:53.138Z,97499.22
2023-12-21T14:22:01.529Z,97481.78
2023-12-21T14:23:06.353Z,97478.06
2023-12-21T14:24:15.782Z,97485.75
2023-12-21T14:25:20.282Z,97483.81
2023-12-21T14:26:24.765Z,97473.91
2023-12-21T14:27:31.619Z,97479.81
2023-12-21T14:28:44.047Z,97480.75
2023-12-21T14:29:57.781Z,97462.16
2023-12-21T14:31:02.023Z,97453.22
2023-12-21T14:32:12.340Z,97452.25
2023-12-21T14:33:19.463Z,97464.84
2023-12-21T14:34:32.015Z,97451.81
2023-12-21T14:35:36.360Z,97446.44
2023-12-21T14:36:43.138Z,97461.41
2023-12-21T14:37:53.195Z,97441.50
2023-12-21T14:39:00.289Z,97438.63
2023-12-21T14:40:09.467Z,97452.63
2023-12-21T14:41:16.293Z,97448.25
2023-12-21T14:42:25.308Z,97441.81
2023-12-21T14:43:33.294Z,97438.69
2023-12-21T14:44:39.944Z,97434.00
2023-12-21T14:45:46.536Z,97435.78
2023-12-21T14:46:52.543Z,97434.97
2023-12-21T14:48:01.172Z,97445.13
2023-12-21T14:49:09.284Z,97445.75
2023-12-21T14:50:16.264Z,97452.78
2023-12-21T14:51:25.229Z,97450.31
2023-12-21T14:52:33.413Z,97483.22
2023-12-21T14:53:40.555Z,97476.06
2023-12-21T14:54:48.247Z,97510.81
2023-12-21T14:55:55.099Z,97513.75
2023-12-21T14:57:02.666Z,97520.59
2023-12-21T14:58:06.949Z,97508.81
2023-12-21T14:59:15.662Z,97512.91
2023-12-21T15:00:22.386Z,97520.28
2023-12-21T15:01:30.197Z,97524.00
2023-12-21T15:02:36.126Z,97504.44
2023-12-21T15:03:46.102Z,97512.38
2023-12-21T15:04:53.702Z,97511.56
2023-12-21T15:06:00.271Z,97518.41
2023-12-21T15:07:07.416Z,97537.47
2023-12-21T15:08:15.043Z,97556.25
2023-12-21T15:09:21.224Z,97559.69
2023-12-21T15:10:28.310Z,97557.38
2023-12-21T15:11:37.338Z,97569.59
2023-12-21T15:12:44.711Z,97576.44
2023-12-21T15:13:49.062Z,97592.63
2023-12-21T15:14:55.081Z,97592.88
2023-12-21T15:16:02.597Z,97597.94
2023-12-21T15:17:11.447Z,97601.25
2023-12-21T15:18:16.032Z,97604.25
2023-12-21T15:19:30.542Z,97606.88
2023-12-21T15:20:34.779Z,97609.63
2023-12-21T15:21:43.316Z,97620.31
2023-12-21T15:22:53.258Z,97638.84
2023-12-21T15:24:00.252Z,97622.81
2023-12-21T15:25:09.123Z,97641.59
2023-12-21T15:26:16.544Z,97643.81
2023-12-21T15:27:23.693Z,97635.88
2023-12-21T15:28:33.118Z,97660.16
2023-12-21T15:29:37.701Z,97670.56
2023-12-21T15:30:41.970Z,97657.00
2023-12-21T15:31:48.556Z,97650.16
2023-12-21T15:32:54.812Z,97650.28
2023-12-21T15:34:01.792Z,97641.91
2023-12-21T15:35:09.049Z,97659.88
2023-12-21T15:36:18.728Z,97635.09
2023-12-21T15:37:26.221Z,97639.88
2023-12-21T15:38:35.467Z,97622.19
2023-12-21T15:39:45.916Z,97638.50
2023-12-21T15:40:55.964Z,97626.19
2023-12-21T15:42:00.276Z,97628.50
2023-12-21T15:43:13.241Z,97629.34
2023-12-21T15:44:19.840Z,97615.09
2023-12-21T15:45:30.897Z,97583.84
2023-12-21T15:46:37.163Z,97593.44
2023-12-21T15:47:47.153Z,97592.91
2023-12-21T15:48:53.371Z,97603.59
2023-12-21T15:50:00.330Z,97609.88
2023-12-21T15:51:05.591Z,97618.91
2023-12-21T15:52:13.640Z,97612.63
2023-12-21T15:53:23.702Z,97620.00
2023-12-21T15:54:31.980Z,97616.19
2023-12-21T15:55:36.218Z,97609.19
2023-12-21T15:56:43.263Z,97613.84
2023-12-21T15:57:47.870Z,97617.81
2023-12-21T15:58:57.319Z,97623.56
2023-12-21T16:00:01.541Z,97611.78
2023-12-21T16:01:11.633Z,97619.19
2023-12-21T16:02:19.683Z,97612.59
2023-12-21T16:03:28.483Z,97612.59
2023-12-21T16:04:36.564Z,97618.91
2023-12-21T16:05:45.293Z,97624.66
2023-12-21T16:06:52.059Z,97629.72
2023-12-21T16:07:58.853Z,97624.09
2023-12-21T16:09:04.703Z,97634.66
2023-12-21T16:10:12.711Z,97612.72
2023-12-21T16:11:18.004Z,97625.72
2023-12-21T16:12:21.880Z,97627.63
2023-12-21T16:13:28.974Z,97623.84
2023-12-21T16:14:38.168Z,97623.94
2023-12-21T16:15:48.820Z,97631.75
2023-12-21T16:16:53.546Z,97625.72
2023-12-21T16:18:01.511Z,97631.75
2023-12-21T16:19:09.310Z,97623.38
2023-12-21T16:20:20.030Z,97622.44
2023-12-21T16:21:27.492Z,97629.16
2023-12-21T16:22:34.439Z,97619.03
2023-12-21T16:23:39.025Z,97623.53
2023-12-21T16:24:48.196Z,97635.28
2023-12-21T16:25:52.579Z,97636.53
2023-12-21T16:26:59.453Z,97627.94
2023-12-21T16:28:07.882Z,97627.09
2023-12-21T16:29:15.947Z,97618.06
2023-12-21T16:30:22.865Z,97621.88
2023-12-21T16:31:30.770Z,97622.00
2023-12-21T16:32:37.314Z,97616.66
2023-12-21T16:33:44.312Z,97626.13
2023-12-21T16:34:48.700Z,97636.38
2023-12-21T16:35:56.586Z,97622.25
2023-12-21T16:37:02.870Z,97629.25
2023-12-21T16:38:12.020Z,97633.09
2023-12-21T16:39:18.636Z,97636.06
2023-12-21T16:40:25.615Z,97640.03
2023-12-21T16:41:31.519Z,97641.56
2023-12-21T16:42:38.698Z,97648.41
2023-12-21T16:43:46.439Z,97651.84
2023-12-21T16:44:56.657Z,97650.44
2023-12-21T16:46:05.005Z,97674.41
2023-12-21T16:47:13.217Z,97668.78
2023-12-21T16:48:20.608Z,97675.63
2023-12-21T16:49:28.846Z,97671.94
2023-12-21T16:50:36.241Z,97674.94
2023-12-21T16:51:43.673Z,97683.69
2023-12-21T16:52:53.468Z,97686.03
2023-12-21T16:54:00.380Z,97683.13
2023-12-21T16:55:06.953Z,97680.78
2023-12-21T16:56:12.835Z,97687.50
2023-12-21T16:57:25.585Z,97702.00
2023-12-21T16:58:30.009Z,97696.25
2023-12-21T16:59:39.384Z,97700.50
2023-12-21T17:00:44.213Z,97697.34
2023-12-21T17:01:54.254Z,97693.66
2023-12-21T17:02:58.502Z,97700.59
2023-12-21T17:04:05.523Z,97719.38
2023-12-21T17:05:10.538Z,97708.03
2023-12-21T17:06:17.474Z,97721.53
2023-12-21T17:07:24.318Z,97715.16
2023-12-21T17:08:33.256Z,97717.03
2023-12-21T17:09:39.678Z,97712.00
2023-12-21T17:10:48.016Z,97716.09
2023-12-21T17:11:52.558Z,97714.31
2023-12-21T17:12:59.339Z,97709.94
2023-12-21T17:14:03.914Z,97716.66
2023-12-21T17:15:14.131Z,97724.47
2023-12-21T17:16:24.296Z,97713.19
2023-12-21T17:17:33.618Z,97733.69
2023-12-21T17:18:39.242Z,97720.41
2023-12-21T17:19:46.246Z,97725.38
2023-12-21T17:20:52.808Z,97716.72
2023-12-21T17:21:59.865Z,97714.97
2023-12-21T17:23:08.564Z,97709.34
2023-12-21T17:24:16.073Z,97723.16
2023-12-21T17:25:22.856Z,97733.41
2023-12-21T17:26:29.162Z,97721.38
2023-12-21T17:27:36.589Z,97723.16
2023-12-21T17:28:42.673Z,97712.56
2023-12-21T17:29:52.106Z,97714.78
2023-12-21T17:30:57.094Z,97716.44
2023-12-21T17:32:06.363Z,97708.22
2023-12-21T17:33:13.227Z,97712.72
2023-12-21T17:34:22.425Z,97721.44
2023-12-21T17:35:28.054Z,97709.22
2023-12-21T17:36:34.872Z,97721.25
2023-12-21T17:37:41.723Z,97720.03
2023-12-21T17:38:48.746Z,97717.16
2023-12-21T17:39:55.839Z,97731.78
2023-12-21T17:41:04.106Z,97737.56
2023-12-21T17:42:15.292Z,97734.69
2023-12-21T17:43:20.403Z,97751.94
2023-12-21T17:44:27.381Z,97738.06
2023-12-21T17:45:31.949Z,97759.66
2023-12-21T17:46:38.840Z,97754.16
2023-12-21T17:47:47.297Z,97746.63
2023-12-21T17:48:57.112Z,97758.66
2023-12-21T17:50:02.181Z,97766.88
2023-12-21T17:51:09.539Z,97762.91
2023-12-21T17:52:13.872Z,97775.06
2023-12-21T17:53:22.829Z,97775.94
2023-12-21T17:54:29.895Z,97788.63
2023-12-21T17:55:42.117Z,97775.50
2023-12-21T17:56:49.475Z,97776.91
2023-12-21T17:58:01.651Z,97777.84
2023-12-21T17:59:06.649Z,97790.13
2023-12-21T18:00:15.208Z,97789.06
2023-12-21T18:01:19.735Z,97780.56
2023-12-21T18:02:27.052Z,97776.44
2023-12-21T18:03:31.296Z,97792.88
2023-12-21T18:04:41.305Z,97775.63
2023-12-21T18:05:45.722Z,97782.59
2023-12-21T18:06:55.456Z,97772.22
2023-12-21T18:07:59.634Z,97781.75
2023-12-21T18:09:08.029Z,97780.56
2023-12-21T18:10:12.771Z,97784.22
2023-12-21T18:11:19.795Z,97772.09
2023-12-21T18:12:24.056Z,97781.63
2023-12-21T18:13:31.238Z,97793.09
2023-12-21T18:14:34.374Z,97791.56
2023-12-21T18:15:43.053Z,97803.84
2023-12-21T18:16:50.498Z,97790.06
2023-12-21T18:17:59.503Z,97778.16
2023-12-21T18:19:06.250Z,97789.81
2023-12-21T18:20:19.317Z,97783.06
2023-12-21T18:21:23.533Z,97789.13
2023-12-21T18:22:28.742Z,97767.25
2023-12-21T18:23:36.705Z,97768.91
2023-12-21T18:24:41.620Z,97770.56
2023-12-21T18:25:51.232Z,97781.06
2023-12-21T18:26:57.639Z,97790.50
2023-12-21T18:28:04.653Z,97777.06
2023-12-21T18:29:13.482Z,97776.84
2023-12-21T18:30:20.530Z,97773.03
2023-12-21T18:31:24.825Z,97782.59
2023-12-21T18:32:34.372Z,97785.06
2023-12-21T18:33:41.598Z,97789.31
2023-12-21T18:34:47.587Z,97787.66
2023-12-21T18:35:56.141Z,97786.97
2023-12-21T18:37:06.477Z,97769.84
2023-12-21T18:38:13.259Z,97773.66
2023-12-21T18:39:20.031Z,97777.50
2023-12-21T18:40:26.476Z,97762.31
2023-12-21T18:41:32.949Z,97767.25
2023-12-21T18:42:36.458Z,97767.03
2023-12-21T18:43:43.313Z,97763.59
2023-12-21T18:44:47.607Z,97772.31
2023-12-21T18:45:54.377Z,97767.84
2023-12-21T18:46:58.698Z,97771.38
2023-12-21T18:48:06.128Z,97768.78
2023-12-21T18:49:10.824Z,97768.53
2023-12-21T18:50:22.880Z,97764.88
2023-12-21T18:51:29.097Z,97781.03
2023-12-21T18:52:36.427Z,97775.25
2023-12-21T18:53:42.437Z,97775.13
2023-12-21T18:54:46.778Z,97785.28
2023-12-21T18:55:54.417Z,97790.13
2023-12-21T18:56:59.540Z,97797.41
2023-12-21T18:58:05.887Z,97799.88
2023-12-21T18:59:13.165Z,97804.13
2023-12-21T19:00:20.341Z,97796.91
2023-12-21T19:01:27.379Z,97805.78
2023-12-21T19:02:34.380Z,97815.38
2023-12-21T19:03:44.410Z,97807.56
2023-12-21T19:04:48.704Z,97796.72
2023-12-21T19:05:55.645Z,97796.34
2023-12-21T19:07:07.990Z,97764.59
2023-12-21T19:08:14.911Z,97776.19
2023-12-21T19:09:22.474Z,97782.91
2023-12-21T19:10:30.594Z,97787.16
2023-12-21T19:11:34.248Z,97782.53
2023-12-21T19:12:41.611Z,97788.44
2023-12-21T19:13:45.973Z,97783.94
2023-12-21T19:14:53.184Z,97792.66
2023-12-21T19:15:58.854Z,97787.47
2023-12-21T19:17:06.232Z,97787.41
2023-12-21T19:18:10.602Z,97785.75
2023-12-21T19:19:16.638Z,97790.13
2023-12-21T19:20:22.512Z,97791.06
2023-12-21T19:21:29.462Z,97804.31
2023-12-21T19:22:36.328Z,97795.19
2023-12-21T19:23:43.856Z,97814.22
2023-12-21T19:24:49.766Z,97823.91
2023-12-21T19:25:58.720Z,97818.97
2023-12-21T19:27:03.417Z,97814.25
2023-12-21T19:28:10.256Z,97826.03
2023-12-21T19:29:14.507Z,97807.28
2023-12-21T19:30:21.397Z,97801.72
2023-12-21T19:31:27.768Z,97803.63
2023-12-21T19:32:36.866Z,97798.41
2023-12-21T19:33:41.228Z,97813.91
2023-12-21T19:34:48.574Z,97815.94
2023-12-21T19:35:55.324Z,97800.22
2023-12-21T19:37:02.349Z,97800.22
2023-12-21T19:38:10.359Z,97814.72
2023-12-21T19:39:17.176Z,97803.19
2023-12-21T19:40:23.295Z,97799.91
2023-12-21T19:41:30.545Z,97810.66
2023-12-21T19:42:34.965Z,97790.56
2023-12-21T19:43:41.868Z,97804.03
2023-12-21T19:44:48.461Z,97801.34
2023-12-21T19:45:59.102Z,97799.44
2023-12-21T19:47:09.188Z,97798.25
2023-12-21T19:48:16.419Z,97799.94
2023-12-21T19:49:20.835Z,97801.56
2023-12-21T19:50:32.635Z,97803.47
2023-12-21T19:51:36.873Z,97797.34
2023-12-21T19:52:43.728Z,97807.47
2023-12-21T19:53:53.855Z,97803.09
2023-12-21T19:55:03.231Z,97812.41
2023-12-21T19:56:08.709Z,97814.22
2023-12-21T19:57:16.128Z,97803.69
2023-12-21T19:58:22.921Z,97832.13
2023-12-21T19:59:29.884Z,97819.25
2023-12-21T20:00:35.577Z,97808.31
2023-12-21T20:01:42.506Z,97803.56
2023-12-21T20:02:46.797Z,97812.56
2023-12-21T20:03:53.716Z,97820.44
2023-12-21T20:04:58.003Z,97806.78
2023-12-21T20:06:07.506Z,97810.06
2023-12-21T20:07:14.178Z,97816.91
2023-12-21T20:08:21.737Z,97811.03
2023-12-21T20:09:28.831Z,97818.69
2023-12-21T20:10:37.313Z,97812.47
2023-12-21T20:11:45.993Z,97833.22
2023-12-21T20:12:53.572Z,97809.63
2023-12-21T20:13:59.668Z,97812.47
2023-12-21T20:15:07.172Z,97806.59
2023-12-21T20:16:12.696Z,97809.28
2023-12-21T20:17:19.176Z,97818.84
2023-12-21T20:18:23.559Z,97814.38
2023-12-21T20:19:30.556Z,97817.78
2023-12-21T20:20:34.916Z,97816.00
2023-12-21T20:21:45.812Z,97807.88
2023-12-21T20:22:52.256Z,97821.66
2023-12-21T20:23:59.729Z,97830.16
2023-12-21T20:25:08.231Z,97814.72
2023-12-21T20:26:16.503Z,97822.97
2023-12-21T20:27:23.129Z,97802.34
2023-12-21T20:28:31.194Z,97816.47
2023-12-21T20:29:37.364Z,97798.81
2023-12-21T20:30:45.872Z,97804.00
2023-12-21T20:31:50.301Z,97810.94
2023-12-21T20:32:57.745Z,97824.84
2023-12-21T20:34:04.955Z,97831.81
2023-12-21T20:35:12.428Z,97815.41
2023-12-21T20:36:16.671Z,97816.13
2023-12-21T20:37:26.113Z,97820.59
2023-12-21T20:38:35.444Z,97835.13
2023-12-21T20:39:42.940Z,97840.53
2023-12-21T20:40:49.871Z,97844.78
2023-12-21T20:41:56.742Z,97850.69
2023-12-21T20:43:03.711Z,97840.66
2023-12-21T20:44:10.368Z,97832.03
2023-12-21T20:45:15.095Z,97845.59
2023-12-21T20:46:22.193Z,97852.44
2023-12-21T20:47:28.048Z,97854.81
2023-12-21T20:48:37.163Z,97843.94
2023-12-21T20:49:45.421Z,97849.38
2023-12-21T20:50:56.365Z,97874.72
2023-12-21T20:52:02.006Z,97857.28
2023-12-21T20:53:09.716Z,97852.19
2023-12-21T20:54:18.233Z,97858.94
2023-12-21T20:55:25.712Z,97874.28
2023-12-21T20:56:32.565Z,97866.13
2023-12-21T20:57:41.208Z,97867.91
2023-12-21T20:58:47.737Z,97867.78
2023-12-21T20:59:54.707Z,97869.91
2023-12-21T21:01:02.840Z,97882.63
2023-12-21T21:02:09.969Z,97877.09
2023-12-21T21:03:15.298Z,97913.06
2023-12-21T21:04:26.112Z,97884.28
2023-12-21T21:05:30.717Z,97873.44
2023-12-21T21:06:37.572Z,97889.00
2023-12-21T21:07:43.570Z,97892.66
2023-12-21T21:08:54.051Z,97892.31
2023-12-21T21:10:01.489Z,97896.44
2023-12-21T21:11:11.185Z,97905.63
2023-12-21T21:12:20.510Z,97885.00
2023-12-21T21:13:27.879Z,97886.75
2023-12-21T21:14:34.534Z,97904.69
2023-12-21T21:15:44.315Z,97898.56
2023-12-21T21:16:49.655Z,97893.25
2023-12-21T21:17:56.804Z,97908.00
2023-12-21T21:19:01.869Z,97896.78
2023-12-21T21:20:14.173Z,97894.06
2023-12-21T21:21:18.508Z,97900.81
2023-12-21T21:22:25.659Z,97913.66
2023-12-21T21:23:30.094Z,97905.41
2023-12-21T21:24:41.094Z,97889.84
2023-12-21T21:25:46.059Z,97880.41
2023-12-21T21:26:55.337Z,97906.47
2023-12-21T21:28:02.156Z,97918.59
2023-12-21T21:29:08.352Z,97885.94
2023-12-21T21:30:53.972Z,97887.72
2023-12-21T21:31:41.992Z,97914.78
2023-12-21T21:32:46.648Z,97902.69
2023-12-21T21:33:53.509Z,97915.53
2023-12-21T21:34:59.916Z,97904.91
2023-12-21T21:36:07.354Z,97895.97
2023-12-21T21:37:15.225Z,97899.50
2023-12-21T21:38:24.547Z,97895.00
2023-12-21T21:39:28.744Z,97897.38
2023-12-21T21:40:39.614Z,97904.09
2023-12-21T21:41:44.670Z,97910.06
2023-12-21T21:42:51.525Z,97893.72
2023-12-21T21:43:57.597Z,97906.69
2023-12-21T21:45:10.815Z,97895.59
2023-12-21T21:46:15.268Z,97899.94
2023-12-21T21:47:24.491Z,97936.81
2023-12-21T21:48:28.821Z,97894.50
2023-12-21T21:49:35.768Z,97903.69
2023-12-21T21:50:43.012Z,97898.75
2023-12-21T21:51:47.764Z,97903.69
2023-12-21T21:52:54.666Z,97926.22
2023-12-21T21:54:00.954Z,97911.22
2023-12-21T21:55:10.435Z,97913.81
2023-12-21T21:56:20.193Z,97924.19
2023-12-21T21:57:27.398Z,97917.94
2023-12-21T21:58:36.173Z,97906.75
2023-12-21T21:59:49.522Z,97939.66
2023-12-21T22:00:53.882Z,97914.66
2023-12-21T22:02:03.516Z,97913.34
2023-12-21T22:03:11.588Z,97921.84
2023-12-21T22:04:20.341Z,97914.28
2023-12-21T22:05:27.216Z,97933.25
2023-12-21T22:06:31.945Z,97908.16
2023-12-21T22:07:40.954Z,97921.56
2023-12-21T22:08:45.117Z,97932.16
2023-12-21T22:09:51.993Z,97909.44
2023-12-21T22:10:56.570Z,97941.25
2023-12-21T22:12:03.684Z,97921.44
2023-12-21T22:13:07.437Z,97924.03
2023-12-21T22:14:15.917Z,97939.94
2023-12-21T22:15:23.714Z,97931.69
2023-12-21T22:16:32.211Z,97942.91
2023-12-21T22:17:36.726Z,97943.03
2023-12-21T22:18:44.293Z,97949.63
2023-12-21T22:19:48.655Z,97944.44
2023-12-21T22:20:56.436Z,97950.81
2023-12-21T22:22:00.868Z,97958.81
2023-12-21T22:23:08.488Z,97936.97
2023-12-21T22:24:12.808Z,97940.63
2023-12-21T22:25:20.430Z,97934.50
2023-12-21T22:26:25.162Z,97945.09
2023-12-21T22:27:31.952Z,97936.25
2023-12-21T22:28:36.597Z,97934.38
2023-12-21T22:29:44.495Z,97933.47
2023-12-21T22:30:53.179Z,97964.56
2023-12-21T22:32:00.298Z,97948.16
2023-12-21T22:33:05.591Z,97927.06
2023-12-21T22:34:10.219Z,97945.41
2023-12-21T22:35:17.537Z,97944.59
2023-12-21T22:36:23.966Z,97954.84
2023-12-21T22:37:30.924Z,97937.53
2023-12-21T22:38:36.127Z,97981.56
2023-12-21T22:39:43.886Z,97961.81
2023-12-21T22:40:48.216Z,97964.72
2023-12-21T22:41:55.311Z,97968.13
2023-12-21T22:43:00.199Z,97977.22
2023-12-21T22:44:04.471Z,97975.56
2023-12-21T22:45:12.906Z,97980.66
2023-12-21T22:46:23.759Z,97978.78
2023-12-21T22:47:33.147Z,97961.44
2023-12-21T22:48:44.862Z,97985.00
2023-12-21T22:49:51.904Z,97977.00
2023-12-21T22:50:56.172Z,97973.00
2023-12-21T22:52:02.985Z,97974.84
2023-12-21T22:53:07.192Z,97991.94
2023-12-21T22:54:14.075Z,97983.47
2023-12-21T22:55:18.519Z,97986.44
2023-12-21T22:56:25.395Z,97980.44
2023-12-21T22:57:31.958Z,98001.28
2023-12-21T22:58:39.838Z,98005.41
2023-12-21T22:59:45.887Z,98007.06
2023-12-21T23:00:52.688Z,97998.34
2023-12-21T23:02:02.180Z,98006.22
2023-12-21T23:03:12.052Z,98004.47
2023-12-21T23:04:16.330Z,97986.91
2023-12-21T23:05:23.776Z,97996.09
2023-12-21T23:06:30.410Z,98003.97
2023-12-21T23:07:38.338Z,97993.38
2023-12-21T23:08:42.650Z,98001.88
2023-12-21T23:09:50.847Z,98022.81
2023-12-21T23:10:57.481Z,98002.09
2023-12-21T23:12:06.709Z,97996.78
2023-12-21T23:13:18.029Z,97981.97
2023-12-21T23:14:29.407Z,97986.22
2023-12-21T23:15:34.025Z,98004.84
2023-12-21T23:16:40.972Z,98002.47
2023-12-21T23:17:50.030Z,97986.09
2023-12-21T23:18:57.093Z,97992.94
2023-12-21T23:20:01.487Z,97996.72
2023-12-21T23:21:10.447Z,98003.31
2023-12-21T23:22:16.400Z,97995.41
2023-12-21T23:23:23.532Z,98002.84
2023-12-21T23:24:27.703Z,97985.88
2023-12-21T23:25:39.452Z,97990.22
2023-12-21T23:26:43.787Z,97994.81
2023-12-21T23:27:50.635Z,97994.69
2023-12-21T23:28:54.819Z,98001.66
2023-12-21T23:30:01.692Z,97995.41
2023-12-21T23:31:08.916Z,97995.75
2023-12-21T23:32:17.826Z,97994.22
2023-12-21T23:33:25.512Z,98015.78
2023-12-21T23:34:32.806Z,98008.66
2023-12-21T23:35:39.214Z,98013.63
2023-12-21T23:36:48.787Z,98012.47
2023-12-21T23:37:53.255Z,98003.97
2023-12-21T23:39:00.403Z,98015.38
2023-12-21T23:40:10.733Z,98006.69
2023-12-21T23:41:20.384Z,97979.22
2023-12-21T23:42:25.772Z,98006.06
2023-12-21T23:43:32.261Z,98002.66
2023-12-21T23:44:36.753Z,98024.53
2023-12-21T23:45:44.312Z,98015.50
2023-12-21T23:46:50.789Z,98024.09
2023-12-21T23:47:57.822Z,98009.59
2023-12-21T23:49:06.190Z,98021.41
2023-12-21T23:50:14.443Z,98046.09
2023-12-21T23:51:20.478Z,98016.47
2023-12-21T23:52:27.449Z,97998.75
2023-12-21T23:53:31.752Z,98006.50
2023-12-21T23:54:38.729Z,98022.16
2023-12-21T23:55:43.142Z,98027.13
2023-12-21T23:56:50.095Z,98009.22
2023-12-21T23:57:54.350Z,98008.94
2023-12-21T23:59:01.087Z,98023.88
